Time;durP1;ratioP1;P1;durP2;ratioP2;P2;SDS_P1;SDS_P2;PMS_P1;PMS_P2;Temp;Humidity;BMP_temperature;BMP_pressure;BME280_temperature;BME280_humidity;BME280_pressure;Samples;Min_cycle;Max_cycle;Signal;HPM_P1;HPM_P2
2024/01/13 00:00:13;;;;;;;32.63;18.02;;;1.20;99.90;;;;;;2103138;28;20111;-73
2024/01/13 00:01:13;;;;;;;32.47;18.05;;;1.20;99.90;;;;;;2104997;28;20469;-72
2024/01/13 00:02:14;;;;;;;29.08;17.08;;;1.20;99.90;;;;;;2102676;28;20036;-73
2024/01/13 00:03:14;;;;;;;30.27;17.33;;;1.20;99.90;;;;;;2100919;28;20085;-73
2024/01/13 00:04:15;;;;;;;29.02;17.15;;;1.20;99.90;;;;;;2101777;28;20032;-73
2024/01/13 00:05:16;;;;;;;29.52;16.63;;;1.30;99.90;;;;;;2108735;27;20016;-72
2024/01/13 00:06:16;;;;;;;31.60;17.25;;;1.20;99.90;;;;;;2100909;28;20591;-72
2024/01/13 00:07:17;;;;;;;33.35;17.42;;;1.20;99.90;;;;;;2098646;28;20047;-72
2024/01/13 00:08:17;;;;;;;31.58;17.20;;;1.20;99.90;;;;;;2103444;28;20050;-72
2024/01/13 00:09:18;;;;;;;31.52;17.33;;;1.20;99.90;;;;;;2103916;28;20068;-71
2024/01/13 00:10:18;;;;;;;29.35;16.42;;;1.20;99.90;;;;;;2102359;28;20031;-73
2024/01/13 00:11:19;;;;;;;32.72;17.23;;;1.20;99.90;;;;;;2095803;28;20027;-72
2024/01/13 00:12:19;;;;;;;31.30;17.35;;;1.30;99.90;;;;;;2091675;28;20067;-72
2024/01/13 00:13:20;;;;;;;32.22;18.02;;;1.20;99.90;;;;;;2097906;28;20048;-73
2024/01/13 00:14:21;;;;;;;30.40;18.10;;;1.20;99.90;;;;;;2094853;28;20032;-73
2024/01/13 00:15:21;;;;;;;29.38;17.08;;;1.20;99.90;;;;;;2096468;28;20667;-74
2024/01/13 00:16:22;;;;;;;31.33;16.92;;;1.20;99.90;;;;;;2106851;28;20058;-73
2024/01/13 00:17:22;;;;;;;28.77;16.90;;;1.20;99.90;;;;;;2106543;28;20024;-73
2024/01/13 00:18:23;;;;;;;29.10;16.60;;;1.20;99.90;;;;;;2099513;28;20430;-73
2024/01/13 00:19:23;;;;;;;29.98;17.38;;;1.20;99.90;;;;;;2098151;28;20478;-74
2024/01/13 00:20:24;;;;;;;33.30;17.50;;;1.20;99.90;;;;;;2105588;28;20648;-73
2024/01/13 00:21:24;;;;;;;31.38;17.65;;;1.20;99.90;;;;;;2106937;28;20065;-72
2024/01/13 00:22:25;;;;;;;29.17;17.08;;;1.20;99.90;;;;;;2106884;28;20054;-71
2024/01/13 00:23:25;;;;;;;32.28;17.45;;;1.20;99.90;;;;;;2105367;28;20502;-72
2024/01/13 00:24:26;;;;;;;30.60;17.27;;;1.20;99.90;;;;;;2105229;27;20035;-73
2024/01/13 00:25:27;;;;;;;33.33;17.58;;;1.20;99.90;;;;;;2106014;28;20329;-71
2024/01/13 00:26:27;;;;;;;30.15;17.33;;;1.20;99.90;;;;;;2104731;28;20559;-71
2024/01/13 00:27:28;;;;;;;29.30;17.10;;;1.20;99.90;;;;;;2097002;28;20052;-73
2024/01/13 00:28:29;;;;;;;29.05;17.35;;;1.20;99.90;;;;;;2101634;28;20481;-72
2024/01/13 00:29:29;;;;;;;32.17;17.08;;;1.20;99.90;;;;;;2100556;28;20024;-72
2024/01/13 00:30:29;;;;;;;29.35;16.95;;;1.20;99.90;;;;;;2092840;28;20030;-72
2024/01/13 00:31:30;;;;;;;30.52;17.58;;;1.20;99.90;;;;;;2102822;28;20039;-71
2024/01/13 00:32:31;;;;;;;30.38;16.58;;;1.20;99.90;;;;;;2099068;28;20505;-72
2024/01/13 00:33:31;;;;;;;30.45;17.63;;;1.20;99.90;;;;;;2099313;28;20110;-73
2024/01/13 00:34:32;;;;;;;30.77;17.48;;;1.20;99.90;;;;;;2100902;28;20245;-71
2024/01/13 00:35:33;;;;;;;31.48;16.95;;;1.20;99.90;;;;;;2101144;28;20073;-71
2024/01/13 00:36:33;;;;;;;28.83;16.55;;;1.20;99.90;;;;;;2101042;28;20099;-71
2024/01/13 00:37:34;;;;;;;28.27;16.38;;;1.20;99.90;;;;;;2102545;28;20023;-73
2024/01/13 00:38:34;;;;;;;27.45;16.33;;;1.20;99.90;;;;;;2098531;28;20040;-71
2024/01/13 00:39:35;;;;;;;30.20;16.48;;;1.20;99.90;;;;;;2098981;28;20549;-72
2024/01/13 00:40:35;;;;;;;31.88;16.77;;;1.20;99.90;;;;;;2099500;28;20184;-72
2024/01/13 00:41:36;;;;;;;30.00;17.23;;;1.20;99.90;;;;;;2099488;28;20051;-72
2024/01/13 00:42:37;;;;;;;27.85;16.40;;;1.20;99.90;;;;;;2097281;28;20459;-72
2024/01/13 00:43:37;;;;;;;29.45;15.77;;;1.20;99.90;;;;;;2099959;28;20036;-73
2024/01/13 00:44:38;;;;;;;30.30;16.88;;;1.20;99.90;;;;;;2095467;28;20457;-71
2024/01/13 00:45:38;;;;;;;27.30;15.85;;;1.20;99.90;;;;;;2101401;28;20020;-72
2024/01/13 00:46:39;;;;;;;28.05;16.33;;;1.20;99.90;;;;;;2099228;28;20042;-72
2024/01/13 00:47:40;;;;;;;28.35;16.73;;;1.20;99.90;;;;;;2093310;28;20032;-72
2024/01/13 00:48:41;;;;;;;26.23;15.90;;;1.20;99.90;;;;;;2104992;28;20074;-72
2024/01/13 00:49:41;;;;;;;28.05;15.73;;;1.20;99.90;;;;;;2085689;28;20407;-72
2024/01/13 00:50:42;;;;;;;29.83;16.20;;;1.20;99.90;;;;;;2099027;28;20086;-73
2024/01/13 00:51:42;;;;;;;27.05;15.65;;;1.20;99.90;;;;;;2102542;28;20033;-73
2024/01/13 00:52:43;;;;;;;28.60;15.63;;;1.20;99.90;;;;;;2093213;28;20029;-74
2024/01/13 00:53:43;;;;;;;26.85;16.35;;;1.20;99.90;;;;;;2104423;28;20098;-73
2024/01/13 00:54:44;;;;;;;27.25;15.18;;;1.20;99.90;;;;;;2106031;28;20082;-73
2024/01/13 00:55:45;;;;;;;24.25;15.20;;;1.20;99.90;;;;;;2093522;28;20066;-73
2024/01/13 00:56:46;;;;;;;26.95;16.30;;;1.20;99.90;;;;;;2092525;28;20526;-73
2024/01/13 00:57:46;;;;;;;28.05;15.18;;;1.20;99.90;;;;;;2095877;28;20037;-73
2024/01/13 00:58:47;;;;;;;23.35;14.88;;;1.20;99.90;;;;;;2094412;28;20556;-73
2024/01/13 00:59:47;;;;;;;27.50;15.13;;;1.20;99.90;;;;;;2091660;28;20013;-73
2024/01/13 01:00:48;;;;;;;26.20;14.32;;;1.20;99.90;;;;;;2098288;28;20478;-73
2024/01/13 01:01:48;;;;;;;25.52;15.15;;;1.30;99.90;;;;;;2092369;28;20055;-73
2024/01/13 01:02:49;;;;;;;25.25;14.75;;;1.30;99.90;;;;;;2098944;28;20058;-72
2024/01/13 01:03:49;;;;;;;24.88;14.65;;;1.30;99.90;;;;;;2093093;28;20628;-73
2024/01/13 01:04:50;;;;;;;25.15;14.05;;;1.30;99.90;;;;;;2093252;28;20173;-71
2024/01/13 01:05:51;;;;;;;24.85;14.75;;;1.30;99.90;;;;;;2100984;28;20430;-73
2024/01/13 01:06:51;;;;;;;23.75;14.18;;;1.30;99.90;;;;;;2092265;28;20522;-73
2024/01/13 01:07:52;;;;;;;26.02;14.30;;;1.30;99.90;;;;;;2092557;28;20054;-73
2024/01/13 01:08:52;;;;;;;25.35;14.48;;;1.30;99.90;;;;;;2100269;28;20055;-71
2024/01/13 01:09:53;;;;;;;26.15;14.73;;;1.30;99.90;;;;;;2093772;28;20033;-73
2024/01/13 01:10:53;;;;;;;24.23;13.77;;;1.30;99.90;;;;;;2098892;28;20059;-71
2024/01/13 01:11:54;;;;;;;24.35;13.60;;;1.20;99.90;;;;;;2092553;28;20032;-71
2024/01/13 01:12:54;;;;;;;25.52;14.55;;;1.20;99.90;;;;;;2097121;28;20097;-72
2024/01/13 01:13:55;;;;;;;25.38;14.55;;;1.30;99.90;;;;;;2092903;28;20048;-73
2024/01/13 01:14:56;;;;;;;26.77;14.68;;;1.20;99.90;;;;;;2092992;28;20024;-73
2024/01/13 01:15:56;;;;;;;23.15;13.82;;;1.20;99.90;;;;;;2084048;28;20052;-72
2024/01/13 01:16:57;;;;;;;23.85;13.95;;;1.20;99.90;;;;;;2083989;28;20536;-72
2024/01/13 01:17:57;;;;;;;25.02;14.18;;;1.20;99.90;;;;;;2098003;28;20028;-72
2024/01/13 01:18:58;;;;;;;25.90;14.38;;;1.20;99.90;;;;;;2095686;28;20456;-71
2024/01/13 01:19:58;;;;;;;28.67;14.98;;;1.30;99.90;;;;;;2083946;28;20029;-71
2024/01/13 01:20:59;;;;;;;25.38;14.00;;;1.20;99.90;;;;;;2092219;28;20052;-71
2024/01/13 01:21:59;;;;;;;26.75;14.85;;;1.20;99.90;;;;;;2092859;28;20032;-73
2024/01/13 01:23:00;;;;;;;24.70;13.65;;;1.20;99.90;;;;;;2092972;28;20024;-73
2024/01/13 01:24:00;;;;;;;25.70;13.93;;;1.20;99.90;;;;;;2092925;28;20394;-72
2024/01/13 01:25:01;;;;;;;23.45;14.10;;;1.20;99.90;;;;;;2100843;28;20520;-73
2024/01/13 01:26:02;;;;;;;24.20;14.32;;;1.20;99.90;;;;;;2094278;28;20545;-71
2024/01/13 01:27:02;;;;;;;25.95;14.80;;;1.30;99.90;;;;;;2099836;28;20024;-71
2024/01/13 01:28:03;;;;;;;23.67;13.57;;;1.30;99.90;;;;;;2092892;28;20398;-72
2024/01/13 01:29:04;;;;;;;23.35;13.63;;;1.30;99.90;;;;;;2095715;28;20100;-72
2024/01/13 01:30:05;;;;;;;23.50;14.18;;;1.30;99.90;;;;;;2094599;28;20430;-72
2024/01/13 01:31:06;;;;;;;22.70;13.75;;;1.30;99.90;;;;;;2095203;28;20029;-73
2024/01/13 01:32:08;;;;;;;24.95;14.07;;;1.20;99.90;;;;;;2095015;28;20032;-73
2024/01/13 01:33:08;;;;;;;24.63;14.10;;;1.30;99.90;;;;;;2096111;28;20594;-73
2024/01/13 01:34:09;;;;;;;23.95;13.48;;;1.30;99.90;;;;;;2093276;28;20036;-73
2024/01/13 01:35:09;;;;;;;24.02;13.73;;;1.30;99.90;;;;;;2100530;28;20024;-73
2024/01/13 01:36:10;;;;;;;24.50;14.18;;;1.30;99.90;;;;;;2096883;28;20016;-72
2024/01/13 01:37:10;;;;;;;23.27;12.95;;;1.30;99.90;;;;;;2098054;28;20028;-72
2024/01/13 01:38:11;;;;;;;23.55;14.20;;;1.30;99.90;;;;;;2096412;28;20039;-72
2024/01/13 01:39:11;;;;;;;22.52;13.68;;;1.30;99.90;;;;;;2097719;28;20255;-73
2024/01/13 01:40:15;;;;;;;22.65;13.32;;;1.30;99.90;;;;;;2092062;28;20119;-71
2024/01/13 01:41:15;;;;;;;25.13;13.75;;;1.30;99.90;;;;;;2096064;28;20115;-72
2024/01/13 01:42:16;;;;;;;22.65;13.98;;;1.30;99.90;;;;;;2104286;28;20493;-73
2024/01/13 01:43:16;;;;;;;24.13;13.98;;;1.30;99.90;;;;;;2094452;28;20029;-73
2024/01/13 01:44:18;;;;;;;24.40;13.68;;;1.30;99.90;;;;;;2096705;28;20418;-72
2024/01/13 01:45:18;;;;;;;23.02;13.63;;;1.30;99.90;;;;;;2092608;28;20028;-73
2024/01/13 01:46:20;;;;;;;23.52;13.77;;;1.30;99.90;;;;;;2092884;28;20531;-73
2024/01/13 01:47:22;;;;;;;22.42;13.38;;;1.30;99.90;;;;;;2100976;28;20032;-73
2024/01/13 01:48:29;;;;;;;23.02;13.15;;;1.30;99.90;;;;;;2092922;28;20047;-72
2024/01/13 01:49:30;;;;;;;23.38;13.73;;;1.30;99.90;;;;;;2098122;28;20051;-72
2024/01/13 01:50:31;;;;;;;23.35;13.93;;;1.20;99.90;;;;;;2102884;28;20613;-71
2024/01/13 01:51:33;;;;;;;22.90;13.68;;;1.30;99.90;;;;;;2103114;28;20023;-72
2024/01/13 01:52:33;;;;;;;23.83;13.93;;;1.20;99.90;;;;;;2106781;28;20036;-72
2024/01/13 01:53:35;;;;;;;25.95;13.52;;;1.30;99.90;;;;;;2103785;28;20024;-72
2024/01/13 01:54:36;;;;;;;23.73;13.70;;;1.30;99.90;;;;;;2102906;28;20064;-72
2024/01/13 01:55:38;;;;;;;21.88;12.85;;;1.30;99.90;;;;;;2098076;28;20020;-73
2024/01/13 01:56:39;;;;;;;24.08;13.35;;;1.30;99.90;;;;;;2105533;28;20449;-72
2024/01/13 01:57:40;;;;;;;23.60;13.57;;;1.30;99.90;;;;;;2102540;28;20512;-73
2024/01/13 01:58:42;;;;;;;24.02;13.10;;;1.30;99.90;;;;;;2106153;28;20024;-72
2024/01/13 01:59:43;;;;;;;24.08;13.27;;;1.30;99.90;;;;;;2102824;28;20048;-73
2024/01/13 02:00:43;;;;;;;23.67;13.68;;;1.30;99.90;;;;;;2103385;28;20067;-72
2024/01/13 02:01:46;;;;;;;22.58;12.60;;;1.30;99.90;;;;;;2107135;28;20119;-72
2024/01/13 02:02:47;;;;;;;23.48;13.65;;;1.30;99.90;;;;;;2102542;28;20502;-73
2024/01/13 02:03:48;;;;;;;24.85;13.93;;;1.30;99.90;;;;;;2103613;28;20708;-87
2024/01/13 02:04:49;;;;;;;23.25;13.57;;;1.30;99.90;;;;;;2103329;28;20032;-79
2024/01/13 02:05:50;;;;;;;24.70;14.10;;;1.30;99.90;;;;;;2102685;28;20029;-73
2024/01/13 02:06:51;;;;;;;24.75;14.20;;;1.30;99.90;;;;;;2106905;28;20036;-78
2024/01/13 02:07:52;;;;;;;22.70;13.38;;;1.30;99.90;;;;;;2105837;28;20032;-78
2024/01/13 02:08:53;;;;;;;21.42;13.05;;;1.20;99.90;;;;;;2102913;28;20030;-79
2024/01/13 02:09:54;;;;;;;22.60;13.88;;;1.30;99.90;;;;;;2104068;28;20035;-79
2024/01/13 02:10:55;;;;;;;23.80;14.35;;;1.30;99.90;;;;;;2102671;28;20037;-78
2024/01/13 02:11:55;;;;;;;21.70;13.00;;;1.30;99.90;;;;;;2099263;28;20094;-77
2024/01/13 02:12:56;;;;;;;22.83;13.85;;;1.20;99.90;;;;;;2098217;28;20028;-79
2024/01/13 02:13:57;;;;;;;23.48;13.88;;;1.20;99.90;;;;;;2100368;28;20047;-78
2024/01/13 02:14:57;;;;;;;22.80;13.80;;;1.30;99.90;;;;;;2102717;28;20033;-78
2024/01/13 02:15:58;;;;;;;25.00;13.88;;;1.20;99.90;;;;;;2105439;28;20065;-78
2024/01/13 02:16:59;;;;;;;23.42;13.43;;;1.20;99.90;;;;;;2104467;28;20030;-78
2024/01/13 02:18:00;;;;;;;23.42;13.93;;;1.20;99.90;;;;;;2105878;28;20572;-79
2024/01/13 02:19:00;;;;;;;24.52;14.23;;;1.20;99.90;;;;;;2097496;28;20031;-79
2024/01/13 02:20:06;;;;;;;24.38;14.07;;;1.20;99.90;;;;;;2092141;28;20027;-77
2024/01/13 02:21:07;;;;;;;25.33;14.52;;;1.20;99.90;;;;;;2107408;28;20097;-81
2024/01/13 02:22:07;;;;;;;23.50;14.25;;;1.20;99.90;;;;;;2105356;28;20028;-77
2024/01/13 02:23:08;;;;;;;25.45;14.05;;;1.20;99.90;;;;;;2105928;28;20019;-76
2024/01/13 02:24:08;;;;;;;22.63;13.35;;;1.20;99.90;;;;;;2106306;28;20061;-77
2024/01/13 02:25:09;;;;;;;22.45;13.65;;;1.20;99.90;;;;;;2106007;28;20425;-77
2024/01/13 02:26:10;;;;;;;25.33;13.73;;;1.20;99.90;;;;;;2106905;28;20520;-77
2024/01/13 02:27:11;;;;;;;26.23;13.95;;;1.20;99.90;;;;;;2105421;28;20032;-77
2024/01/13 02:28:11;;;;;;;22.63;13.73;;;1.20;99.90;;;;;;2095548;28;20024;-77
2024/01/13 02:29:12;;;;;;;22.77;13.93;;;1.20;99.90;;;;;;2107265;28;20023;-78
2024/01/13 02:30:13;;;;;;;23.63;14.25;;;1.20;99.90;;;;;;2100146;28;20055;-78
2024/01/13 02:31:17;;;;;;;24.15;13.90;;;1.20;99.90;;;;;;2093716;28;20478;-77
2024/01/13 02:32:17;;;;;;;23.67;13.70;;;1.20;99.90;;;;;;2092776;28;20055;-77
2024/01/13 02:33:18;;;;;;;24.60;14.40;;;1.20;99.90;;;;;;2105825;28;20447;-78
2024/01/13 02:34:18;;;;;;;23.98;14.15;;;1.20;99.90;;;;;;2103316;28;20023;-77
2024/01/13 02:35:19;;;;;;;24.10;14.27;;;1.20;99.90;;;;;;2103158;28;20716;-79
2024/01/13 02:36:19;;;;;;;25.17;14.55;;;1.20;99.90;;;;;;2106409;28;20031;-79
2024/01/13 02:37:20;;;;;;;29.05;15.13;;;1.20;99.90;;;;;;2103947;28;20039;-78
2024/01/13 02:38:20;;;;;;;27.15;14.90;;;1.20;99.90;;;;;;2101837;28;20101;-79
2024/01/13 02:39:21;;;;;;;25.40;14.80;;;1.20;99.90;;;;;;2097836;28;20032;-79
2024/01/13 02:40:21;;;;;;;24.98;14.63;;;1.20;99.90;;;;;;2102957;28;20024;-78
2024/01/13 02:41:22;;;;;;;24.90;14.65;;;1.20;99.90;;;;;;2102544;28;20053;-78
2024/01/13 02:42:22;;;;;;;23.27;13.82;;;1.20;99.90;;;;;;2099363;28;20056;-78
2024/01/13 02:43:23;;;;;;;24.90;14.00;;;1.20;99.90;;;;;;2103956;28;20027;-79
2024/01/13 02:44:24;;;;;;;21.67;13.85;;;1.20;99.90;;;;;;2103124;28;20024;-77
2024/01/13 02:45:24;;;;;;;23.60;13.55;;;1.20;99.90;;;;;;2105671;28;20024;-77
2024/01/13 02:46:25;;;;;;;23.88;14.68;;;1.20;99.90;;;;;;2095306;28;20024;-78
2024/01/13 02:47:35;;;;;;;23.77;14.20;;;1.20;99.90;;;;;;2104949;28;20027;-77
2024/01/13 02:48:40;;;;;;;23.63;13.98;;;1.20;99.90;;;;;;2102023;28;20125;-76
2024/01/13 02:49:41;;;;;;;21.85;13.20;;;1.20;99.90;;;;;;2099414;28;20685;-78
2024/01/13 02:50:48;;;;;;;23.75;14.30;;;1.20;99.90;;;;;;2092301;28;20029;-78
2024/01/13 02:51:48;;;;;;;22.50;13.40;;;1.20;99.90;;;;;;2091991;28;20020;-78
2024/01/13 02:52:49;;;;;;;22.80;13.38;;;1.20;99.90;;;;;;2092100;28;20524;-78
2024/01/13 02:53:50;;;;;;;22.52;13.48;;;1.20;99.90;;;;;;2099743;28;20028;-79
2024/01/13 02:54:50;;;;;;;21.15;13.45;;;1.20;99.90;;;;;;2091821;28;20103;-77
2024/01/13 02:55:51;;;;;;;21.75;13.45;;;1.20;99.90;;;;;;2083622;28;20139;-77
2024/01/13 02:56:51;;;;;;;21.08;13.60;;;1.20;99.90;;;;;;2079556;28;20037;-78
2024/01/13 02:57:52;;;;;;;22.67;13.23;;;1.20;99.90;;;;;;2083296;28;20430;-77
2024/01/13 02:58:52;;;;;;;20.88;13.07;;;1.20;99.90;;;;;;2087495;28;20032;-78
2024/01/13 02:59:53;;;;;;;22.52;13.75;;;1.20;99.90;;;;;;2095990;28;20107;-77
2024/01/13 03:00:53;;;;;;;20.80;13.20;;;1.20;99.90;;;;;;2092009;28;20039;-78
2024/01/13 03:01:54;;;;;;;20.17;13.02;;;1.20;99.90;;;;;;2094822;28;20040;-77
2024/01/13 03:02:54;;;;;;;21.23;13.77;;;1.20;99.90;;;;;;2094938;28;20067;-79
2024/01/13 03:03:55;;;;;;;21.40;13.05;;;1.20;99.90;;;;;;2094097;28;20032;-78
2024/01/13 03:04:55;;;;;;;20.27;12.93;;;1.20;99.90;;;;;;2083501;28;20021;-78
2024/01/13 03:05:56;;;;;;;21.58;13.35;;;1.20;99.90;;;;;;2088804;28;20079;-78
2024/01/13 03:06:57;;;;;;;22.63;13.63;;;1.20;99.90;;;;;;2097397;28;20055;-77
2024/01/13 03:07:57;;;;;;;21.00;13.45;;;1.30;99.90;;;;;;2098339;28;20077;-78
2024/01/13 03:08:58;;;;;;;20.38;13.32;;;1.20;99.90;;;;;;2099861;28;20024;-78
2024/01/13 03:09:58;;;;;;;21.67;13.45;;;1.30;99.90;;;;;;2086357;28;20045;-78
2024/01/13 03:10:59;;;;;;;22.27;13.50;;;1.30;99.90;;;;;;2098076;28;20453;-78
2024/01/13 03:12:00;;;;;;;20.85;12.73;;;1.30;99.90;;;;;;2101845;28;20053;-77
2024/01/13 03:13:01;;;;;;;21.02;12.63;;;1.30;99.90;;;;;;2092442;28;20089;-78
2024/01/13 03:14:01;;;;;;;19.88;12.48;;;1.30;99.90;;;;;;2088876;28;20471;-77
2024/01/13 03:15:02;;;;;;;19.58;12.75;;;1.30;99.90;;;;;;2101366;28;20023;-78
2024/01/13 03:16:03;;;;;;;20.23;12.70;;;1.30;99.90;;;;;;2098620;28;20060;-78
2024/01/13 03:17:03;;;;;;;20.10;12.57;;;1.30;99.90;;;;;;2096757;28;20418;-77
2024/01/13 03:18:04;;;;;;;19.23;12.55;;;1.30;99.90;;;;;;2100663;28;20105;-77
2024/01/13 03:19:06;;;;;;;20.50;13.40;;;1.30;99.90;;;;;;2097312;28;20033;-78
2024/01/13 03:20:07;;;;;;;23.25;13.38;;;1.30;99.90;;;;;;2095655;28;20493;-78
2024/01/13 03:21:11;;;;;;;19.92;12.73;;;1.30;99.90;;;;;;2095364;28;20127;-78
2024/01/13 03:22:11;;;;;;;19.83;12.38;;;1.30;99.90;;;;;;2096184;28;20564;-78
2024/01/13 03:23:12;;;;;;;19.50;12.95;;;1.30;99.90;;;;;;2083456;28;20017;-78
2024/01/13 03:24:12;;;;;;;20.60;12.77;;;1.30;99.90;;;;;;2091937;28;20120;-78
2024/01/13 03:25:13;;;;;;;20.85;12.77;;;1.30;99.90;;;;;;2091830;28;20092;-78
2024/01/13 03:26:14;;;;;;;22.50;12.88;;;1.30;99.90;;;;;;2095171;28;20138;-78
2024/01/13 03:27:14;;;;;;;20.30;12.45;;;1.30;99.90;;;;;;2093116;28;20067;-79
2024/01/13 03:28:15;;;;;;;21.08;13.38;;;1.30;99.90;;;;;;2093257;28;20093;-77
2024/01/13 03:29:15;;;;;;;21.05;12.70;;;1.30;99.90;;;;;;2092249;28;20033;-77
2024/01/13 03:30:16;;;;;;;21.52;13.00;;;1.40;99.90;;;;;;2098113;28;20077;-78
2024/01/13 03:31:17;;;;;;;20.55;12.77;;;1.30;99.90;;;;;;2092905;28;20545;-80
2024/01/13 03:32:19;;;;;;;20.73;13.60;;;1.30;99.90;;;;;;2092155;28;20055;-77
2024/01/13 03:33:20;;;;;;;22.17;13.38;;;1.40;99.90;;;;;;2098535;28;20576;-78
2024/01/13 03:34:21;;;;;;;19.38;12.50;;;1.40;99.90;;;;;;2091928;28;20171;-78
2024/01/13 03:35:22;;;;;;;19.55;12.63;;;1.40;99.90;;;;;;2083595;28;20099;-78
2024/01/13 03:36:22;;;;;;;21.48;13.02;;;1.40;99.90;;;;;;2091733;28;20174;-75
2024/01/13 03:37:23;;;;;;;18.33;12.27;;;1.40;99.90;;;;;;2092312;28;20028;-77
2024/01/13 03:38:25;;;;;;;19.83;12.70;;;1.40;99.90;;;;;;2099692;28;20387;-78
2024/01/13 03:39:25;;;;;;;18.35;11.90;;;1.40;99.90;;;;;;2090230;28;20517;-76
2024/01/13 03:40:26;;;;;;;20.75;12.70;;;1.40;99.90;;;;;;2084562;28;20021;-78
2024/01/13 03:41:26;;;;;;;19.02;12.40;;;1.40;99.90;;;;;;2090400;28;20024;-77
2024/01/13 03:42:27;;;;;;;20.77;13.18;;;1.40;99.90;;;;;;2100466;28;20054;-77
2024/01/13 03:43:28;;;;;;;19.05;12.13;;;1.40;99.90;;;;;;2100932;28;20076;-76
2024/01/13 03:44:28;;;;;;;21.13;12.68;;;1.40;99.90;;;;;;2096266;28;20025;-75
2024/01/13 03:45:29;;;;;;;21.90;12.60;;;1.40;99.90;;;;;;2104443;28;20470;-77
2024/01/13 03:46:29;;;;;;;21.15;12.98;;;1.40;99.90;;;;;;2100342;28;20024;-77
2024/01/13 03:47:30;;;;;;;19.23;11.98;;;1.40;99.90;;;;;;2088104;28;20145;-77
2024/01/13 03:48:30;;;;;;;19.80;12.50;;;1.40;99.90;;;;;;2095545;28;20023;-78
2024/01/13 03:49:31;;;;;;;18.33;12.25;;;1.40;99.90;;;;;;2103346;28;20108;-76
2024/01/13 03:50:31;;;;;;;18.42;12.05;;;1.40;99.90;;;;;;2099034;28;20102;-78
2024/01/13 03:51:32;;;;;;;19.48;11.95;;;1.40;99.90;;;;;;2096562;28;20017;-77
2024/01/13 03:52:33;;;;;;;19.67;12.40;;;1.40;99.90;;;;;;2098390;28;20549;-77
2024/01/13 03:53:33;;;;;;;20.15;12.50;;;1.40;99.90;;;;;;2099739;28;20485;-76
2024/01/13 03:54:34;;;;;;;19.45;12.18;;;1.40;99.90;;;;;;2093329;28;20183;-76
2024/01/13 03:55:34;;;;;;;19.60;11.95;;;1.40;99.90;;;;;;2097876;28;20025;-77
2024/01/13 03:56:35;;;;;;;19.50;12.32;;;1.40;99.90;;;;;;2099250;28;20028;-77
2024/01/13 03:57:35;;;;;;;17.83;11.90;;;1.40;99.90;;;;;;2094906;28;20104;-79
2024/01/13 03:58:36;;;;;;;19.65;12.35;;;1.40;99.90;;;;;;2099702;28;20810;-77
2024/01/13 03:59:36;;;;;;;18.73;12.38;;;1.40;99.90;;;;;;2101900;28;20055;-78
2024/01/13 04:00:37;;;;;;;18.48;11.45;;;1.40;99.90;;;;;;2095926;28;20025;-77
2024/01/13 04:01:37;;;;;;;18.65;11.95;;;1.40;99.90;;;;;;2101584;28;20056;-79
2024/01/13 04:02:38;;;;;;;17.30;11.77;;;1.40;99.90;;;;;;2099798;28;20124;-78
2024/01/13 04:03:38;;;;;;;17.95;11.65;;;1.40;99.90;;;;;;2101929;28;20032;-78
2024/01/13 04:04:39;;;;;;;19.10;11.55;;;1.40;99.90;;;;;;2101032;28;20031;-77
2024/01/13 04:05:39;;;;;;;17.17;11.40;;;1.40;99.90;;;;;;2085797;28;20449;-77
2024/01/13 04:06:40;;;;;;;17.52;11.27;;;1.40;99.90;;;;;;2100444;28;20810;-76
2024/01/13 04:07:41;;;;;;;17.10;11.15;;;1.40;99.90;;;;;;2089866;28;20036;-76
2024/01/13 04:08:41;;;;;;;18.08;11.70;;;1.40;99.90;;;;;;2097703;28;20037;-77
2024/01/13 04:09:42;;;;;;;19.73;11.77;;;1.40;99.90;;;;;;2099913;28;20029;-78
2024/01/13 04:10:43;;;;;;;18.73;11.45;;;1.40;99.90;;;;;;2102096;28;20151;-77
2024/01/13 04:11:43;;;;;;;18.00;11.10;;;1.40;99.90;;;;;;2087487;28;20142;-76
2024/01/13 04:12:45;;;;;;;17.13;11.00;;;1.40;99.90;;;;;;2087218;28;20067;-77
2024/01/13 04:13:45;;;;;;;15.48;10.07;;;1.40;99.90;;;;;;2096699;28;20024;-76
2024/01/13 04:14:48;;;;;;;16.55;10.43;;;1.50;99.90;;;;;;2098969;28;20524;-77
2024/01/13 04:15:49;;;;;;;17.33;10.88;;;1.50;99.90;;;;;;2088074;28;20036;-79
2024/01/13 04:16:49;;;;;;;17.27;11.07;;;1.50;99.90;;;;;;2092989;28;20728;-77
2024/01/13 04:17:50;;;;;;;16.33;10.75;;;1.50;99.90;;;;;;2102685;28;20024;-77
2024/01/13 04:18:51;;;;;;;16.58;10.60;;;1.50;99.90;;;;;;2096709;28;20386;-77
2024/01/13 04:19:51;;;;;;;15.82;10.70;;;1.50;99.90;;;;;;2094391;28;20529;-77
2024/01/13 04:20:52;;;;;;;15.85;10.88;;;1.50;99.90;;;;;;2095883;28;20024;-78
2024/01/13 04:21:52;;;;;;;15.65;10.55;;;1.50;99.90;;;;;;2103740;28;20036;-78
2024/01/13 04:22:53;;;;;;;15.85;10.43;;;1.50;99.90;;;;;;2103814;28;20030;-79
2024/01/13 04:23:53;;;;;;;15.77;10.52;;;1.50;99.90;;;;;;2100917;28;20036;-77
2024/01/13 04:24:54;;;;;;;14.50;9.80;;;1.50;99.90;;;;;;2092780;28;20024;-79
2024/01/13 04:25:54;;;;;;;16.67;10.23;;;1.50;99.90;;;;;;2101745;28;20213;-78
2024/01/13 04:26:55;;;;;;;16.50;10.60;;;1.50;99.90;;;;;;2096444;28;20175;-78
2024/01/13 04:27:56;;;;;;;16.20;10.65;;;1.50;99.90;;;;;;2087084;28;20334;-78
2024/01/13 04:28:56;;;;;;;15.10;10.27;;;1.50;99.90;;;;;;2092755;28;20521;-80
2024/01/13 04:29:57;;;;;;;15.88;10.82;;;1.50;99.90;;;;;;2093741;28;20086;-71
2024/01/13 04:30:57;;;;;;;15.25;10.25;;;1.50;99.90;;;;;;2093315;28;20143;-71
2024/01/13 04:31:58;;;;;;;15.27;10.60;;;1.50;99.90;;;;;;2094592;28;20032;-71
2024/01/13 04:32:59;;;;;;;16.15;10.55;;;1.50;99.90;;;;;;2095111;28;20135;-72
2024/01/13 04:33:59;;;;;;;15.10;10.48;;;1.40;99.90;;;;;;2105100;28;20012;-72
2024/01/13 04:35:00;;;;;;;17.65;10.98;;;1.50;99.90;;;;;;2094396;28;20482;-72
2024/01/13 04:36:00;;;;;;;14.82;10.05;;;1.50;99.90;;;;;;2101033;28;20040;-71
2024/01/13 04:37:02;;;;;;;16.63;10.77;;;1.50;99.90;;;;;;2093547;28;20027;-73
2024/01/13 04:38:02;;;;;;;15.07;10.13;;;1.50;99.90;;;;;;2095634;28;20493;-72
2024/01/13 04:39:03;;;;;;;15.70;10.32;;;1.50;99.90;;;;;;2099293;28;20043;-73
2024/01/13 04:40:04;;;;;;;15.85;10.00;;;1.50;99.90;;;;;;2098620;28;20128;-77
2024/01/13 04:41:05;;;;;;;15.65;10.60;;;1.50;99.90;;;;;;2093498;28;20044;-77
2024/01/13 04:42:06;;;;;;;14.55;10.13;;;1.50;99.90;;;;;;2102437;28;20397;-78
2024/01/13 04:43:06;;;;;;;14.38;9.73;;;1.50;99.90;;;;;;2102073;28;20082;-76
2024/01/13 04:44:09;;;;;;;13.75;9.60;;;1.50;99.90;;;;;;2102203;28;20062;-77
2024/01/13 04:45:10;;;;;;;15.35;9.65;;;1.50;99.90;;;;;;2092880;28;20546;-77
2024/01/13 04:46:11;;;;;;;13.88;9.43;;;1.50;99.90;;;;;;2092241;28;20115;-77
2024/01/13 04:47:12;;;;;;;14.10;9.60;;;1.50;99.90;;;;;;2092703;28;20439;-78
2024/01/13 04:48:15;;;;;;;14.45;9.98;;;1.50;99.90;;;;;;2096876;28;20024;-75
2024/01/13 04:49:16;;;;;;;14.20;10.07;;;1.50;99.90;;;;;;2092727;28;20048;-75
2024/01/13 04:50:16;;;;;;;15.02;10.20;;;1.40;99.90;;;;;;2088927;28;20032;-75
2024/01/13 04:51:17;;;;;;;14.25;9.60;;;1.40;99.90;;;;;;2096207;28;20024;-76
2024/01/13 04:52:17;;;;;;;13.73;9.57;;;1.50;99.90;;;;;;2104135;28;20028;-76
2024/01/13 04:53:18;;;;;;;14.55;9.68;;;1.50;99.90;;;;;;2094187;28;20079;-76
2024/01/13 04:54:18;;;;;;;12.98;8.90;;;1.50;99.90;;;;;;2090842;28;20047;-77
2024/01/13 04:55:19;;;;;;;13.63;9.48;;;1.50;99.90;;;;;;2100232;28;20027;-77
2024/01/13 04:56:19;;;;;;;13.77;9.02;;;1.50;99.90;;;;;;2094188;28;20100;-77
2024/01/13 04:57:20;;;;;;;12.63;9.45;;;1.50;99.90;;;;;;2099994;28;20062;-76
2024/01/13 04:58:21;;;;;;;13.88;9.30;;;1.50;99.90;;;;;;2099957;28;20051;-77
2024/01/13 04:59:21;;;;;;;13.43;9.05;;;1.50;99.90;;;;;;2100686;28;20031;-77
2024/01/13 05:00:22;;;;;;;13.30;9.15;;;1.50;99.90;;;;;;2094253;28;20055;-77
2024/01/13 05:01:23;;;;;;;14.00;9.38;;;1.50;99.90;;;;;;2100832;28;20111;-77
2024/01/13 05:02:24;;;;;;;14.00;9.35;;;1.50;99.90;;;;;;2095793;28;20033;-77
2024/01/13 05:03:25;;;;;;;13.07;9.18;;;1.50;99.90;;;;;;2084074;28;20024;-76
2024/01/13 05:04:26;;;;;;;12.80;8.93;;;1.50;99.90;;;;;;2082673;28;20494;-76
2024/01/13 05:05:27;;;;;;;13.07;8.82;;;1.40;99.90;;;;;;2088583;28;20020;-77
2024/01/13 05:06:27;;;;;;;13.32;8.50;;;1.40;99.90;;;;;;2093235;28;20035;-76
2024/01/13 05:07:28;;;;;;;11.48;8.48;;;1.40;99.90;;;;;;2100609;28;20030;-78
2024/01/13 05:08:28;;;;;;;11.73;8.48;;;1.50;99.90;;;;;;2083952;28;20670;-77
2024/01/13 05:09:29;;;;;;;11.63;8.35;;;1.50;99.90;;;;;;2092480;28;20498;-76
2024/01/13 05:10:30;;;;;;;13.85;9.07;;;1.50;99.90;;;;;;2101112;28;20066;-76
2024/01/13 05:11:30;;;;;;;12.65;8.88;;;1.50;99.90;;;;;;2099975;28;20096;-76
2024/01/13 05:12:31;;;;;;;11.95;8.73;;;1.50;99.90;;;;;;2092443;28;20038;-78